sensor_id;sensor_type;location;lat;lon;timestamp;temperature;humidity
35603;DHT22;21725;50.836;4.368;2022-12-01T00:01:55;9.60;99.90
35603;DHT22;21725;50.836;4.368;2022-12-01T00:04:23;8.50;99.90
35603;DHT22;21725;50.836;4.368;2022-12-01T00:06:49;9.10;99.90
35603;DHT22;21725;50.836;4.368;2022-12-01T00:09:26;8.80;99.90
35603;DHT22;21725;50.836;4.368;2022-12-01T00:12:11;8.80;99.90
35603;DHT22;21725;50.836;4.368;2022-12-01T00:14:46;8.90;99.90
35603;DHT22;21725;50.836;4.368;2022-12-01T00:17:20;9.10;99.90
35603;DHT22;21725;50.836;4.368;2022-12-01T00:19:56;9.00;99.90
35603;DHT22;21725;50.836;4.368;2022-12-01T00:22:26;9.20;99.90
35603;DHT22;21725;50.836;4.368;2022-12-01T00:24:55;9.20;99.90
35603;DHT22;21725;50.836;4.368;2022-12-01T00:27:23;9.20;99.90
35603;DHT22;21725;50.836;4.368;2022-12-01T00:30:00;9.10;99.90
35603;DHT22;21725;50.836;4.368;2022-12-01T00:32:37;9.50;99.90
35603;DHT22;21725;50.836;4.368;2022-12-01T00:35:03;9.10;99.90
35603;DHT22;21725;50.836;4.368;2022-12-01T00:37:34;8.40;99.90
35603;DHT22;21725;50.836;4.368;2022-12-01T00:40:07;9.10;99.90
35603;DHT22;21725;50.836;4.368;2022-12-01T00:45:33;9.00;99.90
35603;DHT22;21725;50.836;4.368;2022-12-01T00:47:58;9.00;99.90
35603;DHT22;21725;50.836;4.368;2022-12-01T00:50:37;8.90;99.90
35603;DHT22;21725;50.836;4.368;2022-12-01T00:53:06;8.90;99.90
35603;DHT22;21725;50.836;4.368;2022-12-01T00:55:37;9.10;99.90
35603;DHT22;21725;50.836;4.368;2022-12-01T00:58:05;9.40;99.90
35603;DHT22;21725;50.836;4.368;2022-12-01T01:00:33;9.30;99.90
35603;DHT22;21725;50.836;4.368;2022-12-01T01:03:05;9.30;99.90
35603;DHT22;21725;50.836;4.368;2022-12-01T01:05:35;9.40;99.90
35603;DHT22;21725;50.836;4.368;2022-12-01T01:08:08;9.20;99.90
35603;DHT22;21725;50.836;4.368;2022-12-01T01:10:42;9.20;99.90
35603;DHT22;21725;50.836;4.368;2022-12-01T01:13:08;9.30;99.90
35603;DHT22;21725;50.836;4.368;2022-12-01T01:15:43;9.30;99.90
35603;DHT22;21725;50.836;4.368;2022-12-01T01:18:11;9.40;99.90
35603;DHT22;21725;50.836;4.368;2022-12-01T01:20:39;9.20;99.90
35603;DHT22;21725;50.836;4.368;2022-12-01T01:23:08;9.20;99.90
35603;DHT22;21725;50.836;4.368;2022-12-01T01:25:36;8.50;99.90
35603;DHT22;21725;50.836;4.368;2022-12-01T01:28:08;9.00;99.90
35603;DHT22;21725;50.836;4.368;2022-12-01T01:30:34;8.90;99.90
35603;DHT22;21725;50.836;4.368;2022-12-01T01:33:03;8.50;99.90
35603;DHT22;21725;50.836;4.368;2022-12-01T01:35:32;8.50;99.90
35603;DHT22;21725;50.836;4.368;2022-12-01T01:38:05;8.40;99.90
35603;DHT22;21725;50.836;4.368;2022-12-01T01:40:44;8.50;99.90
35603;DHT22;21725;50.836;4.368;2022-12-01T01:43:15;8.50;99.90
35603;DHT22;21725;50.836;4.368;2022-12-01T01:45:42;8.70;99.90
35603;DHT22;21725;50.836;4.368;2022-12-01T01:48:44;8.70;99.90
35603;DHT22;21725;50.836;4.368;2022-12-01T01:51:21;8.50;99.90
35603;DHT22;21725;50.836;4.368;2022-12-01T01:54:02;8.70;99.90
35603;DHT22;21725;50.836;4.368;2022-12-01T01:56:34;8.80;99.90
35603;DHT22;21725;50.836;4.368;2022-12-01T01:59:04;8.80;99.90
35603;DHT22;21725;50.836;4.368;2022-12-01T02:01:30;8.70;99.90
35603;DHT22;21725;50.836;4.368;2022-12-01T02:04:04;8.60;99.90
35603;DHT22;21725;50.836;4.368;2022-12-01T02:06:37;8.50;99.90
35603;DHT22;21725;50.836;4.368;2022-12-01T02:09:11;8.20;99.90
35603;DHT22;21725;50.836;4.368;2022-12-01T02:26:29;8.30;99.90
35603;DHT22;21725;50.836;4.368;2022-12-01T02:46:32;8.40;99.90
35603;DHT22;21725;50.836;4.368;2022-12-01T02:49:07;8.40;99.90
35603;DHT22;21725;50.836;4.368;2022-12-01T02:51:43;8.80;99.90
35603;DHT22;21725;50.836;4.368;2022-12-01T02:54:21;8.40;99.90
35603;DHT22;21725;50.836;4.368;2022-12-01T02:57:02;8.40;99.90
35603;DHT22;21725;50.836;4.368;2022-12-01T02:59:38;8.60;99.90
35603;DHT22;21725;50.836;4.368;2022-12-01T03:05:08;8.30;99.90
35603;DHT22;21725;50.836;4.368;2022-12-01T03:13:47;8.30;99.90
35603;DHT22;21725;50.836;4.368;2022-12-01T03:19:30;8.50;99.90
35603;DHT22;21725;50.836;4.368;2022-12-01T03:22:13;8.20;99.90
35603;DHT22;21725;50.836;4.368;2022-12-01T03:24:54;8.60;99.90
35603;DHT22;21725;50.836;4.368;2022-12-01T03:27:30;8.50;99.90
35603;DHT22;21725;50.836;4.368;2022-12-01T03:30:08;8.50;99.90
35603;DHT22;21725;50.836;4.368;2022-12-01T03:32:48;8.40;99.90
35603;DHT22;21725;50.836;4.368;2022-12-01T03:35:25;8.40;99.90
35603;DHT22;21725;50.836;4.368;2022-12-01T03:38:13;8.50;99.90
35603;DHT22;21725;50.836;4.368;2022-12-01T03:41:08;7.70;99.90
35603;DHT22;21725;50.836;4.368;2022-12-01T03:43:54;8.50;99.90
35603;DHT22;21725;50.836;4.368;2022-12-01T03:49:21;8.60;99.90
35603;DHT22;21725;50.836;4.368;2022-12-01T03:52:14;8.60;99.90
35603;DHT22;21725;50.836;4.368;2022-12-01T03:54:54;8.60;99.90
35603;DHT22;21725;50.836;4.368;2022-12-01T03:57:57;9.20;99.90
35603;DHT22;21725;50.836;4.368;2022-12-01T04:00:29;8.40;99.90
35603;DHT22;21725;50.836;4.368;2022-12-01T04:03:07;8.30;99.90
35603;DHT22;21725;50.836;4.368;2022-12-01T04:05:55;7.20;99.90
35603;DHT22;21725;50.836;4.368;2022-12-01T04:08:33;8.00;99.90
35603;DHT22;21725;50.836;4.368;2022-12-01T04:11:02;8.10;99.90
35603;DHT22;21725;50.836;4.368;2022-12-01T04:13:57;8.40;99.90
35603;DHT22;21725;50.836;4.368;2022-12-01T04:16:26;8.40;99.90
35603;DHT22;21725;50.836;4.368;2022-12-01T04:19:03;8.20;99.90
35603;DHT22;21725;50.836;4.368;2022-12-01T04:21:40;8.20;99.90
35603;DHT22;21725;50.836;4.368;2022-12-01T04:24:11;8.60;99.90
35603;DHT22;21725;50.836;4.368;2022-12-01T04:26:50;8.30;99.90
35603;DHT22;21725;50.836;4.368;2022-12-01T04:29:28;8.50;99.90
35603;DHT22;21725;50.836;4.368;2022-12-01T04:32:00;8.70;99.90
35603;DHT22;21725;50.836;4.368;2022-12-01T04:34:26;8.50;99.90
35603;DHT22;21725;50.836;4.368;2022-12-01T04:36:54;8.60;99.90
35603;DHT22;21725;50.836;4.368;2022-12-01T04:39:30;8.70;99.90
35603;DHT22;21725;50.836;4.368;2022-12-01T04:42:09;8.80;99.90
35603;DHT22;21725;50.836;4.368;2022-12-01T04:44:39;8.90;99.90
35603;DHT22;21725;50.836;4.368;2022-12-01T04:47:18;8.90;99.90
35603;DHT22;21725;50.836;4.368;2022-12-01T04:49:51;8.90;99.90
35603;DHT22;21725;50.836;4.368;2022-12-01T04:52:30;8.80;99.90
35603;DHT22;21725;50.836;4.368;2022-12-01T04:55:07;8.80;99.90
35603;DHT22;21725;50.836;4.368;2022-12-01T04:57:35;8.50;99.90
35603;DHT22;21725;50.836;4.368;2022-12-01T05:00:15;8.60;99.90
35603;DHT22;21725;50.836;4.368;2022-12-01T05:25:57;5.90;99.90
35603;DHT22;21725;50.836;4.368;2022-12-01T05:28:36;6.80;99.90
35603;DHT22;21725;50.836;4.368;2022-12-01T05:31:07;7.20;99.90
35603;DHT22;21725;50.836;4.368;2022-12-01T05:33:38;7.00;99.90
35603;DHT22;21725;50.836;4.368;2022-12-01T05:36:16;7.50;99.90
35603;DHT22;21725;50.836;4.368;2022-12-01T05:38:42;7.60;99.90
35603;DHT22;21725;50.836;4.368;2022-12-01T05:41:08;8.00;99.90
35603;DHT22;21725;50.836;4.368;2022-12-01T05:43:37;8.20;99.90
35603;DHT22;21725;50.836;4.368;2022-12-01T05:46:15;8.30;99.90
35603;DHT22;21725;50.836;4.368;2022-12-01T05:48:41;8.50;99.90
35603;DHT22;21725;50.836;4.368;2022-12-01T05:51:23;8.50;99.90
35603;DHT22;21725;50.836;4.368;2022-12-01T05:53:52;8.60;99.90
35603;DHT22;21725;50.836;4.368;2022-12-01T05:56:21;8.60;99.90
35603;DHT22;21725;50.836;4.368;2022-12-01T05:59:04;8.90;99.90
35603;DHT22;21725;50.836;4.368;2022-12-01T06:01:37;8.70;99.90
35603;DHT22;21725;50.836;4.368;2022-12-01T06:04:08;8.60;99.90
35603;DHT22;21725;50.836;4.368;2022-12-01T06:06:52;8.60;99.90
35603;DHT22;21725;50.836;4.368;2022-12-01T06:09:18;8.50;99.90
35603;DHT22;21725;50.836;4.368;2022-12-01T06:11:49;8.50;99.90
35603;DHT22;21725;50.836;4.368;2022-12-01T06:14:32;8.50;99.90
35603;DHT22;21725;50.836;4.368;2022-12-01T06:17:03;8.40;99.90
35603;DHT22;21725;50.836;4.368;2022-12-01T06:19:30;8.80;99.90
35603;DHT22;21725;50.836;4.368;2022-12-01T06:21:58;8.70;99.90
35603;DHT22;21725;50.836;4.368;2022-12-01T06:24:24;8.60;99.90
35603;DHT22;21725;50.836;4.368;2022-12-01T06:26:59;8.50;99.90
35603;DHT22;21725;50.836;4.368;2022-12-01T06:29:25;8.40;99.90
35603;DHT22;21725;50.836;4.368;2022-12-01T06:31:53;8.70;99.90
35603;DHT22;21725;50.836;4.368;2022-12-01T06:34:19;8.50;99.90
35603;DHT22;21725;50.836;4.368;2022-12-01T06:36:55;8.50;99.90
35603;DHT22;21725;50.836;4.368;2022-12-01T06:39:34;8.70;99.90
35603;DHT22;21725;50.836;4.368;2022-12-01T06:42:17;8.90;99.90
35603;DHT22;21725;50.836;4.368;2022-12-01T06:44:43;8.70;99.90
35603;DHT22;21725;50.836;4.368;2022-12-01T06:47:11;8.70;99.90
35603;DHT22;21725;50.836;4.368;2022-12-01T06:49:47;8.60;99.90
35603;DHT22;21725;50.836;4.368;2022-12-01T06:52:13;8.80;99.90
35603;DHT22;21725;50.836;4.368;2022-12-01T06:54:41;8.80;99.90
35603;DHT22;21725;50.836;4.368;2022-12-01T06:57:10;9.00;99.90
35603;DHT22;21725;50.836;4.368;2022-12-01T06:59:38;9.10;99.90
35603;DHT22;21725;50.836;4.368;2022-12-01T07:02:11;9.20;99.90
35603;DHT22;21725;50.836;4.368;2022-12-01T07:04:49;9.30;99.90
35603;DHT22;21725;50.836;4.368;2022-12-01T07:07:17;9.10;99.90
35603;DHT22;21725;50.836;4.368;2022-12-01T07:09:48;9.00;99.90
35603;DHT22;21725;50.836;4.368;2022-12-01T07:12:27;9.00;99.90
35603;DHT22;21725;50.836;4.368;2022-12-01T07:15:17;9.10;99.90
35603;DHT22;21725;50.836;4.368;2022-12-01T07:17:53;9.10;99.90
35603;DHT22;21725;50.836;4.368;2022-12-01T07:20:30;8.90;99.90
35603;DHT22;21725;50.836;4.368;2022-12-01T07:23:12;8.20;99.90
35603;DHT22;21725;50.836;4.368;2022-12-01T07:25:43;9.00;99.90
35603;DHT22;21725;50.836;4.368;2022-12-01T07:28:12;8.80;99.90
35603;DHT22;21725;50.836;4.368;2022-12-01T07:30:37;8.70;99.90
35603;DHT22;21725;50.836;4.368;2022-12-01T07:33:17;8.50;99.90
35603;DHT22;21725;50.836;4.368;2022-12-01T07:35:45;8.80;99.90
35603;DHT22;21725;50.836;4.368;2022-12-01T07:38:16;8.90;99.90
35603;DHT22;21725;50.836;4.368;2022-12-01T07:40:48;8.90;99.90
35603;DHT22;21725;50.836;4.368;2022-12-01T07:43:16;8.80;99.90
35603;DHT22;21725;50.836;4.368;2022-12-01T07:48:59;8.80;99.90
35603;DHT22;21725;50.836;4.368;2022-12-01T07:51:26;8.90;99.90
35603;DHT22;21725;50.836;4.368;2022-12-01T07:54:13;8.90;99.90
35603;DHT22;21725;50.836;4.368;2022-12-01T07:56:44;8.90;99.90
35603;DHT22;21725;50.836;4.368;2022-12-01T07:59:43;8.90;99.90
35603;DHT22;21725;50.836;4.368;2022-12-01T08:02:39;8.80;99.90
35603;DHT22;21725;50.836;4.368;2022-12-01T08:05:13;8.60;99.90
35603;DHT22;21725;50.836;4.368;2022-12-01T08:07:47;8.60;99.90
35603;DHT22;21725;50.836;4.368;2022-12-01T08:10:26;8.70;99.90
35603;DHT22;21725;50.836;4.368;2022-12-01T08:13:14;8.70;99.90
35603;DHT22;21725;50.836;4.368;2022-12-01T08:16:08;8.90;99.90
35603;DHT22;21725;50.836;4.368;2022-12-01T08:18:53;9.10;99.90
35603;DHT22;21725;50.836;4.368;2022-12-01T08:21:27;9.10;99.90
35603;DHT22;21725;50.836;4.368;2022-12-01T08:24:43;9.20;99.90
35603;DHT22;21725;50.836;4.368;2022-12-01T08:27:20;9.10;99.90
35603;DHT22;21725;50.836;4.368;2022-12-01T08:29:49;9.20;99.90
35603;DHT22;21725;50.836;4.368;2022-12-01T08:32:26;9.20;99.90
35603;DHT22;21725;50.836;4.368;2022-12-01T08:35:02;9.20;99.90
35603;DHT22;21725;50.836;4.368;2022-12-01T08:37:33;9.00;99.90
35603;DHT22;21725;50.836;4.368;2022-12-01T08:40:20;9.00;99.90
35603;DHT22;21725;50.836;4.368;2022-12-01T08:43:12;9.10;99.90
35603;DHT22;21725;50.836;4.368;2022-12-01T08:45:41;8.60;99.90
35603;DHT22;21725;50.836;4.368;2022-12-01T08:48:33;9.20;99.90
35603;DHT22;21725;50.836;4.368;2022-12-01T08:51:18;8.40;99.90
35603;DHT22;21725;50.836;4.368;2022-12-01T08:54:06;8.50;99.90
35603;DHT22;21725;50.836;4.368;2022-12-01T08:56:55;8.70;99.90
35603;DHT22;21725;50.836;4.368;2022-12-01T08:59:44;8.80;99.90
35603;DHT22;21725;50.836;4.368;2022-12-01T09:02:23;8.80;99.90
35603;DHT22;21725;50.836;4.368;2022-12-01T09:04:52;8.60;99.90
35603;DHT22;21725;50.836;4.368;2022-12-01T09:07:36;8.90;99.90
35603;DHT22;21725;50.836;4.368;2022-12-01T09:10:12;9.00;99.90
35603;DHT22;21725;50.836;4.368;2022-12-01T09:12:41;9.00;99.90
35603;DHT22;21725;50.836;4.368;2022-12-01T09:15:27;9.30;99.90
35603;DHT22;21725;50.836;4.368;2022-12-01T09:18:14;9.00;99.90
35603;DHT22;21725;50.836;4.368;2022-12-01T09:20:47;9.30;99.90
35603;DHT22;21725;50.836;4.368;2022-12-01T09:23:24;9.30;99.90
35603;DHT22;21725;50.836;4.368;2022-12-01T09:26:07;9.20;99.90
35603;DHT22;21725;50.836;4.368;2022-12-01T09:28:55;9.00;99.90
35603;DHT22;21725;50.836;4.368;2022-12-01T09:31:23;9.10;99.90
35603;DHT22;21725;50.836;4.368;2022-12-01T09:34:16;9.40;99.90
35603;DHT22;21725;50.836;4.368;2022-12-01T09:36:43;9.30;99.90
35603;DHT22;21725;50.836;4.368;2022-12-01T09:39:13;9.30;99.90
35603;DHT22;21725;50.836;4.368;2022-12-01T09:41:49;9.20;99.90
35603;DHT22;21725;50.836;4.368;2022-12-01T09:50:39;8.60;99.90
35603;DHT22;21725;50.836;4.368;2022-12-01T09:53:21;8.60;99.90
35603;DHT22;21725;50.836;4.368;2022-12-01T09:55:50;8.70;99.90
35603;DHT22;21725;50.836;4.368;2022-12-01T09:58:20;9.20;99.90
35603;DHT22;21725;50.836;4.368;2022-12-01T10:00:48;9.00;99.90
35603;DHT22;21725;50.836;4.368;2022-12-01T10:03:37;8.90;99.90
35603;DHT22;21725;50.836;4.368;2022-12-01T10:06:19;8.80;99.90
35603;DHT22;21725;50.836;4.368;2022-12-01T10:11:53;8.10;99.90
35603;DHT22;21725;50.836;4.368;2022-12-01T10:14:28;9.30;99.90
35603;DHT22;21725;50.836;4.368;2022-12-01T10:17:22;9.30;99.90
35603;DHT22;21725;50.836;4.368;2022-12-01T10:19:58;9.30;99.90
35603;DHT22;21725;50.836;4.368;2022-12-01T10:25:30;9.50;99.90
35603;DHT22;21725;50.836;4.368;2022-12-01T10:31:18;9.60;99.90
35603;DHT22;21725;50.836;4.368;2022-12-01T10:36:24;9.50;99.90
35603;DHT22;21725;50.836;4.368;2022-12-01T10:38:51;9.50;99.90
35603;DHT22;21725;50.836;4.368;2022-12-01T10:41:19;9.60;99.90
35603;DHT22;21725;50.836;4.368;2022-12-01T10:43:50;9.60;99.90
35603;DHT22;21725;50.836;4.368;2022-12-01T10:46:24;9.90;99.90
35603;DHT22;21725;50.836;4.368;2022-12-01T10:51:27;10.30;99.90
35603;DHT22;21725;50.836;4.368;2022-12-01T10:54:06;10.40;99.90
35603;DHT22;21725;50.836;4.368;2022-12-01T10:56:39;10.00;99.90
35603;DHT22;21725;50.836;4.368;2022-12-01T10:59:26;10.70;99.90
35603;DHT22;21725;50.836;4.368;2022-12-01T11:02:15;10.30;99.90
35603;DHT22;21725;50.836;4.368;2022-12-01T11:23:55;7.60;99.90
35603;DHT22;21725;50.836;4.368;2022-12-01T11:26:30;6.90;99.90
35603;DHT22;21725;50.836;4.368;2022-12-01T11:29:03;8.00;99.90
35603;DHT22;21725;50.836;4.368;2022-12-01T11:31:44;8.10;99.90
35603;DHT22;21725;50.836;4.368;2022-12-01T11:34:33;9.00;99.90
35603;DHT22;21725;50.836;4.368;2022-12-01T11:37:05;9.40;99.90
35603;DHT22;21725;50.836;4.368;2022-12-01T11:40:02;9.60;99.90
35603;DHT22;21725;50.836;4.368;2022-12-01T11:42:34;9.80;99.90
35603;DHT22;21725;50.836;4.368;2022-12-01T11:45:32;10.00;99.90
35603;DHT22;21725;50.836;4.368;2022-12-01T11:50:43;10.10;99.90
35603;DHT22;21725;50.836;4.368;2022-12-01T11:56:13;10.40;99.90
35603;DHT22;21725;50.836;4.368;2022-12-01T11:58:48;10.60;99.90
35603;DHT22;21725;50.836;4.368;2022-12-01T12:01:24;10.60;99.90
35603;DHT22;21725;50.836;4.368;2022-12-01T12:27:09;9.50;99.90
35603;DHT22;21725;50.836;4.368;2022-12-01T12:30:14;9.90;99.90
35603;DHT22;21725;50.836;4.368;2022-12-01T12:38:27;10.10;99.90
35603;DHT22;21725;50.836;4.368;2022-12-01T12:43:52;9.50;99.90
35603;DHT22;21725;50.836;4.368;2022-12-01T12:46:55;9.40;99.90
35603;DHT22;21725;50.836;4.368;2022-12-01T12:49:41;9.80;99.90
35603;DHT22;21725;50.836;4.368;2022-12-01T12:52:21;9.70;99.90
35603;DHT22;21725;50.836;4.368;2022-12-01T12:55:01;9.70;99.90
35603;DHT22;21725;50.836;4.368;2022-12-01T12:57:34;9.80;99.90
35603;DHT22;21725;50.836;4.368;2022-12-01T13:08:45;9.90;99.90
35603;DHT22;21725;50.836;4.368;2022-12-01T13:11:25;9.70;99.90
35603;DHT22;21725;50.836;4.368;2022-12-01T13:14:41;9.80;99.90
35603;DHT22;21725;50.836;4.368;2022-12-01T13:17:50;9.40;99.90
35603;DHT22;21725;50.836;4.368;2022-12-01T13:20:21;9.30;99.90
35603;DHT22;21725;50.836;4.368;2022-12-01T13:22:58;9.40;99.90
35603;DHT22;21725;50.836;4.368;2022-12-01T13:25:37;9.40;99.90
35603;DHT22;21725;50.836;4.368;2022-12-01T13:28:23;9.50;99.90
35603;DHT22;21725;50.836;4.368;2022-12-01T13:31:10;9.60;99.90
35603;DHT22;21725;50.836;4.368;2022-12-01T13:34:00;9.70;99.90
35603;DHT22;21725;50.836;4.368;2022-12-01T13:36:34;9.70;99.90
35603;DHT22;21725;50.836;4.368;2022-12-01T13:39:13;9.80;99.90
35603;DHT22;21725;50.836;4.368;2022-12-01T13:41:44;9.70;99.90
35603;DHT22;21725;50.836;4.368;2022-12-01T13:44:22;9.90;99.90
35603;DHT22;21725;50.836;4.368;2022-12-01T13:57:36;10.10;99.90
35603;DHT22;21725;50.836;4.368;2022-12-01T14:02:34;9.90;99.90
35603;DHT22;21725;50.836;4.368;2022-12-01T14:07:48;9.80;99.90
35603;DHT22;21725;50.836;4.368;2022-12-01T14:10:26;10.20;99.90
35603;DHT22;21725;50.836;4.368;2022-12-01T14:13:02;10.00;99.90
35603;DHT22;21725;50.836;4.368;2022-12-01T14:15:40;9.90;99.90
35603;DHT22;21725;50.836;4.368;2022-12-01T14:18:26;10.00;99.90
35603;DHT22;21725;50.836;4.368;2022-12-01T14:20:57;9.80;99.90
35603;DHT22;21725;50.836;4.368;2022-12-01T14:23:39;9.90;99.90
35603;DHT22;21725;50.836;4.368;2022-12-01T14:31:23;9.90;99.20
35603;DHT22;21725;50.836;4.368;2022-12-01T14:34:11;9.70;99.30
35603;DHT22;21725;50.836;4.368;2022-12-01T14:41:50;9.10;99.40
35603;DHT22;21725;50.836;4.368;2022-12-01T14:49:40;10.50;99.90
35603;DHT22;21725;50.836;4.368;2022-12-01T14:52:35;9.80;99.90
35603;DHT22;21725;50.836;4.368;2022-12-01T14:55:11;9.80;99.90
35603;DHT22;21725;50.836;4.368;2022-12-01T14:57:49;9.80;99.90
35603;DHT22;21725;50.836;4.368;2022-12-01T15:00:23;9.90;99.90
35603;DHT22;21725;50.836;4.368;2022-12-01T15:05:31;10.20;99.90
35603;DHT22;21725;50.836;4.368;2022-12-01T15:08:27;9.90;99.90
35603;DHT22;21725;50.836;4.368;2022-12-01T15:11:20;9.90;99.70
35603;DHT22;21725;50.836;4.368;2022-12-01T15:13:56;9.90;99.10
35603;DHT22;21725;50.836;4.368;2022-12-01T15:16:28;9.90;99.40
35603;DHT22;21725;50.836;4.368;2022-12-01T15:18:58;9.70;99.80
35603;DHT22;21725;50.836;4.368;2022-12-01T15:21:31;9.70;99.90
35603;DHT22;21725;50.836;4.368;2022-12-01T15:24:19;9.90;99.60
35603;DHT22;21725;50.836;4.368;2022-12-01T15:26:59;10.20;98.80
35603;DHT22;21725;50.836;4.368;2022-12-01T15:29:42;9.80;98.60
35603;DHT22;21725;50.836;4.368;2022-12-01T15:32:14;10.10;98.80
35603;DHT22;21725;50.836;4.368;2022-12-01T15:34:44;9.70;99.20
35603;DHT22;21725;50.836;4.368;2022-12-01T15:37:17;9.20;99.40
35603;DHT22;21725;50.836;4.368;2022-12-01T15:39:59;9.60;99.80
35603;DHT22;21725;50.836;4.368;2022-12-01T15:42:38;9.50;99.60
35603;DHT22;21725;50.836;4.368;2022-12-01T15:45:21;9.40;99.70
35603;DHT22;21725;50.836;4.368;2022-12-01T15:48:00;9.40;99.90
35603;DHT22;21725;50.836;4.368;2022-12-01T15:50:40;9.40;99.90
35603;DHT22;21725;50.836;4.368;2022-12-01T15:53:26;9.60;99.90
35603;DHT22;21725;50.836;4.368;2022-12-01T15:56:06;9.70;99.90
35603;DHT22;21725;50.836;4.368;2022-12-01T15:58:39;9.70;99.80
35603;DHT22;21725;50.836;4.368;2022-12-01T16:01:12;9.60;99.90
35603;DHT22;21725;50.836;4.368;2022-12-01T16:04:03;9.50;99.90
35603;DHT22;21725;50.836;4.368;2022-12-01T16:06:40;9.40;99.90
35603;DHT22;21725;50.836;4.368;2022-12-01T16:09:22;9.40;99.90
35603;DHT22;21725;50.836;4.368;2022-12-01T16:12:25;9.60;99.90
35603;DHT22;21725;50.836;4.368;2022-12-01T16:15:14;9.70;99.90
35603;DHT22;21725;50.836;4.368;2022-12-01T16:17:48;9.60;99.90
35603;DHT22;21725;50.836;4.368;2022-12-01T16:20:32;9.60;99.90
35603;DHT22;21725;50.836;4.368;2022-12-01T16:23:17;9.20;99.90
35603;DHT22;21725;50.836;4.368;2022-12-01T16:25:54;9.60;99.90
35603;DHT22;21725;50.836;4.368;2022-12-01T16:28:34;9.50;99.90
35603;DHT22;21725;50.836;4.368;2022-12-01T16:31:17;9.70;99.90
35603;DHT22;21725;50.836;4.368;2022-12-01T16:33:43;9.70;99.90
35603;DHT22;21725;50.836;4.368;2022-12-01T16:36:16;9.60;99.90
35603;DHT22;21725;50.836;4.368;2022-12-01T16:38:49;9.60;99.90
35603;DHT22;21725;50.836;4.368;2022-12-01T16:41:30;9.60;99.90
35603;DHT22;21725;50.836;4.368;2022-12-01T16:43:57;9.60;99.90
35603;DHT22;21725;50.836;4.368;2022-12-01T16:46:23;9.60;99.90
35603;DHT22;21725;50.836;4.368;2022-12-01T16:48:49;9.40;99.90
35603;DHT22;21725;50.836;4.368;2022-12-01T16:51:15;9.30;99.90
35603;DHT22;21725;50.836;4.368;2022-12-01T16:53:42;9.30;99.90
35603;DHT22;21725;50.836;4.368;2022-12-01T16:56:12;9.60;99.90
35603;DHT22;21725;50.836;4.368;2022-12-01T16:58:39;9.90;99.90
35603;DHT22;21725;50.836;4.368;2022-12-01T17:01:05;9.50;99.90
35603;DHT22;21725;50.836;4.368;2022-12-01T17:24:24;6.80;99.90
35603;DHT22;21725;50.836;4.368;2022-12-01T17:26:50;6.40;99.90
35603;DHT22;21725;50.836;4.368;2022-12-01T17:29:16;7.20;99.90
35603;DHT22;21725;50.836;4.368;2022-12-01T17:31:41;7.60;99.90
35603;DHT22;21725;50.836;4.368;2022-12-01T17:34:07;8.10;99.90
35603;DHT22;21725;50.836;4.368;2022-12-01T17:36:32;8.30;99.90
35603;DHT22;21725;50.836;4.368;2022-12-01T17:38:58;8.50;99.90
35603;DHT22;21725;50.836;4.368;2022-12-01T17:41:24;8.80;99.90
35603;DHT22;21725;50.836;4.368;2022-12-01T17:43:56;8.70;99.90
35603;DHT22;21725;50.836;4.368;2022-12-01T17:46:24;8.80;99.90
35603;DHT22;21725;50.836;4.368;2022-12-01T17:48:50;9.10;99.90
35603;DHT22;21725;50.836;4.368;2022-12-01T17:51:16;9.30;99.90
35603;DHT22;21725;50.836;4.368;2022-12-01T17:53:42;9.30;99.90
35603;DHT22;21725;50.836;4.368;2022-12-01T17:56:09;9.30;99.90
35603;DHT22;21725;50.836;4.368;2022-12-01T17:58:36;9.20;99.90
35603;DHT22;21725;50.836;4.368;2022-12-01T18:01:03;9.10;99.90
35603;DHT22;21725;50.836;4.368;2022-12-01T18:03:29;9.10;99.90
35603;DHT22;21725;50.836;4.368;2022-12-01T18:05:58;9.20;99.90
35603;DHT22;21725;50.836;4.368;2022-12-01T18:08:25;9.80;99.90
35603;DHT22;21725;50.836;4.368;2022-12-01T18:10:52;9.20;99.90
35603;DHT22;21725;50.836;4.368;2022-12-01T18:13:18;9.30;99.90
35603;DHT22;21725;50.836;4.368;2022-12-01T18:15:44;9.40;99.90
35603;DHT22;21725;50.836;4.368;2022-12-01T18:18:10;9.30;99.90
35603;DHT22;21725;50.836;4.368;2022-12-01T18:20:40;9.40;99.90
35603;DHT22;21725;50.836;4.368;2022-12-01T18:23:06;9.50;99.90
35603;DHT22;21725;50.836;4.368;2022-12-01T18:25:34;9.30;99.90
35603;DHT22;21725;50.836;4.368;2022-12-01T18:28:01;9.10;99.90
35603;DHT22;21725;50.836;4.368;2022-12-01T18:30:27;8.80;99.90
35603;DHT22;21725;50.836;4.368;2022-12-01T18:32:54;9.30;99.90
35603;DHT22;21725;50.836;4.368;2022-12-01T18:35:24;9.40;99.90
35603;DHT22;21725;50.836;4.368;2022-12-01T18:37:50;9.10;99.90
35603;DHT22;21725;50.836;4.368;2022-12-01T18:40:16;9.40;99.90
35603;DHT22;21725;50.836;4.368;2022-12-01T18:42:42;9.50;99.90
35603;DHT22;21725;50.836;4.368;2022-12-01T18:45:08;9.50;99.90
35603;DHT22;21725;50.836;4.368;2022-12-01T18:47:41;9.60;99.90
35603;DHT22;21725;50.836;4.368;2022-12-01T18:50:08;9.90;99.90
35603;DHT22;21725;50.836;4.368;2022-12-01T18:52:34;9.80;99.90
35603;DHT22;21725;50.836;4.368;2022-12-01T18:55:03;9.80;99.90
35603;DHT22;21725;50.836;4.368;2022-12-01T18:57:30;9.30;99.90
35603;DHT22;21725;50.836;4.368;2022-12-01T18:59:58;9.20;99.90
35603;DHT22;21725;50.836;4.368;2022-12-01T19:02:24;9.20;99.90
35603;DHT22;21725;50.836;4.368;2022-12-01T19:04:50;9.10;99.90
35603;DHT22;21725;50.836;4.368;2022-12-01T19:07:19;9.00;99.90
35603;DHT22;21725;50.836;4.368;2022-12-01T19:09:47;9.30;99.90
35603;DHT22;21725;50.836;4.368;2022-12-01T19:12:20;9.00;99.90
35603;DHT22;21725;50.836;4.368;2022-12-01T19:15:01;8.50;99.90
35603;DHT22;21725;50.836;4.368;2022-12-01T19:17:29;8.90;99.90
35603;DHT22;21725;50.836;4.368;2022-12-01T19:19:58;8.90;99.90
35603;DHT22;21725;50.836;4.368;2022-12-01T19:22:27;8.70;99.90
35603;DHT22;21725;50.836;4.368;2022-12-01T19:24:53;8.80;99.90
35603;DHT22;21725;50.836;4.368;2022-12-01T19:27:19;8.80;99.90
35603;DHT22;21725;50.836;4.368;2022-12-01T19:29:45;8.90;99.90
35603;DHT22;21725;50.836;4.368;2022-12-01T19:32:14;8.80;99.90
35603;DHT22;21725;50.836;4.368;2022-12-01T19:34:40;8.80;99.90
35603;DHT22;21725;50.836;4.368;2022-12-01T19:37:09;8.90;99.90
35603;DHT22;21725;50.836;4.368;2022-12-01T19:39:36;8.90;99.90
35603;DHT22;21725;50.836;4.368;2022-12-01T19:42:02;9.00;99.90
35603;DHT22;21725;50.836;4.368;2022-12-01T19:44:36;8.90;99.90
35603;DHT22;21725;50.836;4.368;2022-12-01T19:47:02;8.90;99.90
35603;DHT22;21725;50.836;4.368;2022-12-01T19:49:31;8.90;99.90
35603;DHT22;21725;50.836;4.368;2022-12-01T19:51:57;9.00;99.90
35603;DHT22;21725;50.836;4.368;2022-12-01T19:54:23;8.80;99.90
35603;DHT22;21725;50.836;4.368;2022-12-01T19:56:53;9.00;99.90
35603;DHT22;21725;50.836;4.368;2022-12-01T19:59:29;8.90;99.90
35603;DHT22;21725;50.836;4.368;2022-12-01T20:01:55;9.00;99.90
35603;DHT22;21725;50.836;4.368;2022-12-01T20:04:25;9.00;99.90
35603;DHT22;21725;50.836;4.368;2022-12-01T20:06:53;9.00;99.90
35603;DHT22;21725;50.836;4.368;2022-12-01T20:09:19;9.00;99.90
35603;DHT22;21725;50.836;4.368;2022-12-01T20:11:52;8.80;99.90